Terminal Aerodrome Forecast
Issued by NWS

Home | Current Version | Previous Version | Text Only | Print | Product List | Glossary On
Versions: 1 2 3 4 5 6 7 8 9 10 11 12 13 14 15 16 17 18 19 20
000
FTUS46 KMTR 211100
TAFSTS
TAF
KSTS 211128Z 2112/2212 17003KT 4SM BR OVC003
      TEMPO 2112/2116 1SM -DZ BR
     FM211800 VRB03KT 5SM BR SCT007 BKN015
     FM220300 00000KT 5SM BR OVC007
     FM220800 00000KT 3SM BR OVC004=

USA.gov is the U.S. government's official web portal to all federal, state and local government web resources and services.